Time;durP1;ratioP1;P1;durP2;ratioP2;P2;SDS_P1;SDS_P2;PMS_P1;PMS_P2;Temp;Humidity;BMP_temperature;BMP_pressure;BME280_temperature;BME280_humidity;BME280_pressure;Samples;Min_cycle;Max_cycle;Signal;HPM_P1;HPM_P2
2022/06/16 00:02:07;;;;;;;2.88;1.05;;;14.80;94.90;;;;;;5031246;28;20041;-70
2022/06/16 00:04:36;;;;;;;4.07;1.35;;;14.80;94.40;;;;;;5031108;28;20113;-69
2022/06/16 00:07:04;;;;;;;3.10;1.00;;;15.00;94.30;;;;;;5030874;28;20022;-72
2022/06/16 00:09:31;;;;;;;2.08;1.10;;;15.10;94.10;;;;;;5046372;28;20033;-70
2022/06/16 00:11:58;;;;;;;2.33;0.95;;;15.20;94.10;;;;;;5031100;28;20045;-69
2022/06/16 00:14:27;;;;;;;2.17;0.93;;;15.20;93.90;;;;;;5029818;28;20036;-69
2022/06/16 00:16:55;;;;;;;1.58;1.00;;;15.30;94.10;;;;;;5030962;28;20116;-69
2022/06/16 00:19:22;;;;;;;3.55;1.17;;;15.30;93.80;;;;;;5031091;28;20028;-67
2022/06/16 00:21:50;;;;;;;3.85;0.80;;;15.50;93.60;;;;;;5046294;28;20406;-70
2022/06/16 00:24:17;;;;;;;1.92;0.80;;;15.50;93.50;;;;;;5030536;28;20501;-68
2022/06/16 00:26:44;;;;;;;2.25;0.98;;;15.60;93.00;;;;;;5030476;28;20018;-68
2022/06/16 00:29:12;;;;;;;3.90;1.30;;;15.80;93.20;;;;;;5030446;28;20025;-69
2022/06/16 00:31:39;;;;;;;5.35;1.05;;;15.80;93.10;;;;;;5028674;28;20029;-70
2022/06/16 00:34:07;;;;;;;2.80;1.15;;;15.90;93.20;;;;;;5030015;28;20532;-69
2022/06/16 00:36:35;;;;;;;2.85;1.00;;;16.00;92.60;;;;;;5030010;28;20039;-68
2022/06/16 00:39:03;;;;;;;1.65;0.80;;;16.20;92.40;;;;;;5031866;28;20079;-70
2022/06/16 00:41:30;;;;;;;2.38;1.00;;;16.30;92.20;;;;;;5034390;28;20021;-69
2022/06/16 00:44:32;;;;;;;5.18;1.85;;;16.40;92.00;;;;;;5034603;28;20025;-69
2022/06/16 00:47:00;;;;;;;2.00;0.80;;;16.50;92.20;;;;;;5034253;28;20076;-67
2022/06/16 00:49:29;;;;;;;3.33;1.52;;;16.50;91.60;;;;;;5034632;28;20033;-69
2022/06/16 00:52:02;;;;;;;1.92;0.90;;;16.50;91.40;;;;;;5034396;28;20081;-69
2022/06/16 00:54:39;;;;;;;2.15;0.98;;;16.60;91.00;;;;;;5034360;28;20073;-71
2022/06/16 00:57:13;;;;;;;0.82;0.60;;;16.70;91.00;;;;;;5034267;28;20026;-68
2022/06/16 00:59:41;;;;;;;1.48;0.60;;;16.90;90.80;;;;;;5034250;28;20481;-70
2022/06/16 01:02:09;;;;;;;1.55;0.60;;;17.00;90.10;;;;;;5034031;28;20422;-69
2022/06/16 01:04:52;;;;;;;1.38;0.80;;;17.10;90.10;;;;;;5034102;28;20022;-70
2022/06/16 01:07:32;;;;;;;3.45;0.70;;;17.20;90.10;;;;;;5033829;28;20021;-68
2022/06/16 01:10:00;;;;;;;3.33;0.80;;;17.30;90.20;;;;;;5032605;28;20022;-70
2022/06/16 01:16:18;;;;;;;2.73;0.63;;;17.50;89.50;;;;;;5033733;28;20044;-70
2022/06/16 01:18:51;;;;;;;1.80;0.50;;;17.60;88.90;;;;;;5033218;28;20041;-71
2022/06/16 01:21:36;;;;;;;2.72;0.82;;;17.70;88.00;;;;;;5032801;28;20021;-71
2022/06/16 01:24:36;;;;;;;2.67;0.70;;;17.80;88.30;;;;;;5033104;28;20104;-71
2022/06/16 01:27:30;;;;;;;2.70;0.90;;;18.00;87.20;;;;;;5032906;28;20017;-71
2022/06/16 01:30:15;;;;;;;4.07;2.60;;;18.10;88.00;;;;;;5031832;28;20029;-68
2022/06/16 01:33:07;;;;;;;1.20;0.80;;;18.20;87.10;;;;;;5033000;28;20022;-68
2022/06/16 01:35:43;;;;;;;0.83;0.50;;;18.30;86.70;;;;;;5032836;28;20029;-68
2022/06/16 01:38:36;;;;;;;2.85;0.60;;;18.30;85.60;;;;;;5032327;28;20415;-71
2022/06/16 01:41:22;;;;;;;0.82;0.52;;;18.40;84.10;;;;;;5024267;28;20045;-69
2022/06/16 01:43:54;;;;;;;4.00;0.60;;;18.50;83.90;;;;;;5033193;28;20385;-70
2022/06/16 01:46:29;;;;;;;2.55;0.57;;;18.60;84.60;;;;;;5032689;28;20426;-69
2022/06/16 01:49:01;;;;;;;0.68;0.60;;;18.80;84.40;;;;;;5032831;28;20060;-70
2022/06/16 01:51:46;;;;;;;2.95;0.50;;;18.90;83.60;;;;;;5031905;28;20079;-72
2022/06/16 01:54:26;;;;;;;0.70;0.47;;;19.00;81.80;;;;;;5032143;28;20034;-72
2022/06/16 01:56:59;;;;;;;3.45;0.50;;;19.10;82.90;;;;;;5032488;28;20033;-69
2022/06/16 01:59:34;;;;;;;2.00;0.63;;;19.30;81.70;;;;;;5032494;28;20053;-69
2022/06/16 02:02:07;;;;;;;1.83;0.60;;;19.50;81.80;;;;;;5032452;28;21343;-69
2022/06/16 02:04:41;;;;;;;1.25;0.57;;;19.60;80.20;;;;;;5032716;28;20026;-69
2022/06/16 02:07:25;;;;;;;1.55;0.57;;;19.70;81.20;;;;;;5032526;28;20221;-70
2022/06/16 02:09:57;;;;;;;1.65;0.80;;;19.80;79.80;;;;;;5031878;28;20427;-68
2022/06/16 02:16:00;;;;;;;1.52;0.40;;;19.90;79.10;;;;;;5029542;28;20056;-70
2022/06/16 02:18:35;;;;;;;3.03;0.52;;;20.00;78.90;;;;;;5030165;28;20025;-71
2022/06/16 02:21:08;;;;;;;1.50;0.50;;;20.10;78.60;;;;;;5031092;28;20556;-70
2022/06/16 02:23:36;;;;;;;3.60;0.82;;;20.10;78.20;;;;;;5031556;28;20034;-69
2022/06/16 02:26:04;;;;;;;8.20;1.05;;;20.20;79.20;;;;;;5031835;28;20017;-69
2022/06/16 02:28:41;;;;;;;1.35;0.60;;;20.30;78.80;;;;;;5031473;28;20033;-71
2022/06/16 02:31:25;;;;;;;5.03;0.77;;;20.50;77.80;;;;;;5031537;28;20048;-68
2022/06/16 02:34:00;;;;;;;2.08;0.73;;;20.70;77.20;;;;;;5031706;28;20040;-71
2022/06/16 02:36:50;;;;;;;4.07;1.20;;;21.00;77.40;;;;;;5031828;28;20014;-71
2022/06/16 02:39:18;;;;;;;4.68;0.80;;;21.30;76.20;;;;;;5030874;28;20116;-70
2022/06/16 02:41:53;;;;;;;2.85;1.13;;;21.50;75.80;;;;;;5031366;28;20045;-70
2022/06/16 02:44:46;;;;;;;2.20;1.05;;;21.70;75.10;;;;;;5031840;28;20048;-69
2022/06/16 02:47:48;;;;;;;3.28;0.82;;;22.10;74.80;;;;;;5023587;28;20508;-69
2022/06/16 02:50:52;;;;;;;2.53;0.60;;;22.70;74.40;;;;;;5031414;28;20036;-70
2022/06/16 02:56:23;;;;;;;2.90;0.60;;;23.00;71.70;;;;;;5031552;28;20104;-77
2022/06/16 02:58:51;;;;;;;2.78;0.63;;;22.60;71.50;;;;;;5031574;28;20017;-73
2022/06/16 03:01:20;;;;;;;1.15;0.52;;;22.60;72.50;;;;;;5031078;28;20424;-72
2022/06/16 03:04:09;;;;;;;2.13;0.85;;;22.50;71.80;;;;;;5031086;28;20029;-71
2022/06/16 03:06:37;;;;;;;2.15;0.50;;;22.30;72.80;;;;;;5031303;28;20116;-73
2022/06/16 03:09:05;;;;;;;1.63;0.50;;;22.50;73.10;;;;;;5031050;28;20104;-75
2022/06/16 03:11:34;;;;;;;2.40;0.60;;;22.70;73.10;;;;;;5046553;28;20588;-72
2022/06/16 03:14:02;;;;;;;3.78;0.60;;;22.80;71.90;;;;;;5031384;28;20048;-71
2022/06/16 03:16:31;;;;;;;1.55;0.60;;;23.10;71.40;;;;;;5031421;28;20022;-70
2022/06/16 03:18:58;;;;;;;1.98;1.10;;;23.40;70.30;;;;;;5031282;28;20017;-73
2022/06/16 03:21:26;;;;;;;2.53;0.60;;;23.80;70.00;;;;;;5031094;28;20087;-71
2022/06/16 03:23:53;;;;;;;2.55;0.60;;;24.00;69.90;;;;;;5031346;28;20053;-71
2022/06/16 03:26:20;;;;;;;1.33;0.40;;;24.20;69.70;;;;;;5030731;28;20060;-73
2022/06/16 03:28:49;;;;;;;1.83;0.57;;;24.50;68.60;;;;;;5031043;28;20452;-72
2022/06/16 03:31:17;;;;;;;1.45;0.55;;;24.60;68.30;;;;;;5031188;28;20497;-73
2022/06/16 03:33:45;;;;;;;4.35;0.57;;;24.70;68.10;;;;;;5030759;28;20032;-72
2022/06/16 03:36:16;;;;;;;1.55;0.60;;;25.10;67.80;;;;;;5029171;28;20021;-73
2022/06/16 03:38:43;;;;;;;2.38;0.88;;;25.10;66.80;;;;;;5030517;28;20112;-71
2022/06/16 03:41:12;;;;;;;3.33;0.63;;;25.30;66.90;;;;;;5030871;28;20592;-71
2022/06/16 03:43:40;;;;;;;2.13;0.68;;;25.60;66.20;;;;;;5030647;28;20112;-69
2022/06/16 03:46:08;;;;;;;3.83;1.23;;;26.00;65.50;;;;;;5030600;28;20049;-69
2022/06/16 03:48:35;;;;;;;3.72;0.50;;;26.40;65.10;;;;;;5030364;28;20025;-71
2022/06/16 03:51:05;;;;;;;1.88;0.50;;;26.20;64.90;;;;;;5031045;28;20018;-70
2022/06/16 03:53:33;;;;;;;2.58;0.63;;;26.40;64.70;;;;;;5030883;28;20635;-70
2022/06/16 03:56:01;;;;;;;3.00;0.88;;;26.60;64.50;;;;;;5031117;28;20060;-72
2022/06/16 03:58:28;;;;;;;2.33;0.70;;;26.80;64.10;;;;;;5030392;28;20021;-70
2022/06/16 04:00:56;;;;;;;2.38;0.50;;;26.80;63.50;;;;;;5030615;28;20018;-70
2022/06/16 04:06:13;;;;;;;6.00;1.48;;;25.90;64.30;;;;;;5030361;28;20113;-74
2022/06/16 04:08:41;;;;;;;1.65;0.50;;;25.20;65.80;;;;;;5030477;28;20022;-71
2022/06/16 04:14:07;;;;;;;1.85;0.47;;;23.90;68.00;;;;;;5032946;28;20033;-70
2022/06/16 04:16:49;;;;;;;1.85;0.70;;;23.30;69.50;;;;;;5034495;28;20082;-71
2022/06/16 04:19:18;;;;;;;1.23;0.60;;;22.70;70.50;;;;;;5034533;28;20493;-71
2022/06/16 04:21:48;;;;;;;2.03;0.60;;;22.30;71.50;;;;;;5034223;28;20402;-71
2022/06/16 04:24:17;;;;;;;2.72;0.60;;;22.00;72.20;;;;;;5034166;28;20053;-69
2022/06/16 04:26:45;;;;;;;3.50;0.82;;;21.80;73.10;;;;;;5034331;28;20017;-69
2022/06/16 04:29:13;;;;;;;4.50;0.70;;;21.60;73.50;;;;;;5034462;28;20025;-70
2022/06/16 04:31:41;;;;;;;3.45;1.20;;;21.40;74.00;;;;;;5033784;28;20033;-72
2022/06/16 04:34:09;;;;;;;3.85;0.82;;;21.30;74.10;;;;;;5033920;28;20116;-68
2022/06/16 04:36:36;;;;;;;4.07;0.70;;;21.20;74.50;;;;;;5033523;28;20235;-71
2022/06/16 04:39:04;;;;;;;1.83;0.60;;;21.20;74.30;;;;;;5033805;28;20026;-70
2022/06/16 04:41:31;;;;;;;2.08;1.10;;;21.00;75.00;;;;;;5033156;28;20120;-69
2022/06/16 04:43:59;;;;;;;3.97;1.40;;;21.00;75.00;;;;;;5034113;28;20030;-73
2022/06/16 04:46:31;;;;;;;3.28;0.90;;;21.00;75.60;;;;;;5033821;28;20018;-72
2022/06/16 04:48:59;;;;;;;3.30;0.88;;;21.00;74.90;;;;;;5033699;28;20486;-70
2022/06/16 04:51:26;;;;;;;2.17;0.80;;;21.00;75.00;;;;;;5033686;28;20025;-69
2022/06/16 04:53:54;;;;;;;1.90;0.95;;;21.00;75.00;;;;;;5033861;28;20045;-68
2022/06/16 04:56:21;;;;;;;2.85;0.90;;;21.00;74.90;;;;;;5034050;28;20025;-73
2022/06/16 04:58:49;;;;;;;4.38;0.95;;;21.00;75.20;;;;;;5033403;28;20040;-74
2022/06/16 05:01:16;;;;;;;3.50;1.63;;;21.00;75.10;;;;;;5033635;28;20485;-69
2022/06/16 05:03:43;;;;;;;3.05;0.68;;;21.00;75.20;;;;;;5033663;28;20045;-69
2022/06/16 05:06:11;;;;;;;1.95;0.70;;;20.90;75.30;;;;;;5033881;28;20143;-72
2022/06/16 05:08:38;;;;;;;2.40;1.20;;;20.80;75.50;;;;;;5033939;28;20025;-74
2022/06/16 05:11:25;;;;;;;2.03;0.70;;;20.60;76.10;;;;;;5033015;28;20053;-70
2022/06/16 05:13:52;;;;;;;2.92;0.70;;;20.50;75.70;;;;;;5031724;28;20120;-73
2022/06/16 05:16:20;;;;;;;3.80;0.70;;;20.40;76.20;;;;;;5033171;28;20540;-69
2022/06/16 05:18:48;;;;;;;1.27;0.50;;;20.30;76.50;;;;;;5032770;28;20041;-72
2022/06/16 05:21:16;;;;;;;1.52;0.50;;;20.30;77.00;;;;;;5031579;28;20076;-71
2022/06/16 05:23:45;;;;;;;5.90;0.88;;;20.20;77.10;;;;;;5031915;28;20087;-69
2022/06/16 05:26:13;;;;;;;6.68;1.30;;;20.10;77.40;;;;;;5029484;28;20025;-69
2022/06/16 05:28:40;;;;;;;3.03;0.82;;;20.10;78.20;;;;;;5032721;28;20057;-69
2022/06/16 05:31:08;;;;;;;1.55;0.60;;;20.10;78.00;;;;;;5033337;28;20496;-69
2022/06/16 05:33:35;;;;;;;1.20;0.60;;;20.00;78.20;;;;;;5033251;28;20021;-68
2022/06/16 05:36:09;;;;;;;3.03;0.55;;;20.00;78.80;;;;;;5033240;28;20022;-76
2022/06/16 05:38:37;;;;;;;1.77;0.47;;;19.90;78.40;;;;;;5033224;28;20064;-71
2022/06/16 05:41:12;;;;;;;2.42;0.57;;;19.90;78.60;;;;;;5031941;28;20021;-75
2022/06/16 05:43:40;;;;;;;4.55;1.48;;;19.80;78.60;;;;;;5032123;28;20067;-72
2022/06/16 05:46:14;;;;;;;2.60;0.50;;;19.80;79.10;;;;;;5032116;28;20030;-78
2022/06/16 05:48:41;;;;;;;1.55;0.50;;;19.70;79.30;;;;;;5026346;28;20389;-74
2022/06/16 05:51:14;;;;;;;1.45;0.50;;;19.70;79.30;;;;;;5031987;28;20429;-71
2022/06/16 05:53:42;;;;;;;3.00;0.52;;;19.70;79.20;;;;;;5029904;28;20034;-74
2022/06/16 05:56:12;;;;;;;1.70;0.77;;;19.60;79.20;;;;;;5031854;28;20033;-71
2022/06/16 05:58:40;;;;;;;1.92;0.50;;;19.60;79.50;;;;;;5039114;28;20026;-71
2022/06/16 06:01:10;;;;;;;1.20;0.47;;;19.60;79.00;;;;;;5031806;28;20025;-73
2022/06/16 06:03:38;;;;;;;1.20;0.60;;;19.50;79.20;;;;;;5031555;28;20037;-77
2022/06/16 06:06:06;;;;;;;1.73;0.40;;;19.50;78.80;;;;;;5031575;28;20075;-75
2022/06/16 06:17:24;;;;;;;1.35;0.63;;;19.10;80.20;;;;;;4976642;28;20029;-71
2022/06/16 06:19:54;;;;;;;4.93;2.30;;;19.00;80.70;;;;;;5015213;28;20040;-71
2022/06/16 06:22:24;;;;;;;12.00;8.20;;;18.90;81.60;;;;;;5011690;28;20552;-70
2022/06/16 06:24:55;;;;;;;17.25;12.68;;;18.90;82.20;;;;;;5014348;28;20383;-70
2022/06/16 06:27:35;;;;;;;11.05;9.18;;;18.80;82.90;;;;;;5031965;28;20021;-70
2022/06/16 06:30:06;;;;;;;7.78;4.82;;;18.70;83.50;;;;;;5031947;28;20370;-72
2022/06/16 06:32:33;;;;;;;3.63;1.85;;;18.70;84.00;;;;;;5030731;28;20049;-70
2022/06/16 06:35:02;;;;;;;3.40;1.13;;;18.60;84.50;;;;;;5030178;28;20429;-70
2022/06/16 06:37:29;;;;;;;2.08;0.70;;;18.50;84.40;;;;;;5030463;28;20025;-71
2022/06/16 06:39:57;;;;;;;7.25;1.52;;;18.40;84.80;;;;;;5030904;28;20030;-70
2022/06/16 06:42:24;;;;;;;3.60;0.90;;;18.40;84.70;;;;;;5029690;28;20025;-70
2022/06/16 06:44:52;;;;;;;2.45;0.77;;;18.30;84.70;;;;;;5030875;28;20061;-71
2022/06/16 06:47:21;;;;;;;1.95;0.80;;;18.30;84.80;;;;;;5031813;28;20062;-70
2022/06/16 06:49:48;;;;;;;3.25;0.88;;;18.20;85.20;;;;;;5031354;28;20033;-72
2022/06/16 06:52:16;;;;;;;1.50;0.75;;;18.10;85.10;;;;;;5030095;28;20025;-73
2022/06/16 06:54:45;;;;;;;1.63;0.70;;;18.00;85.50;;;;;;5046775;28;20073;-70
2022/06/16 06:57:22;;;;;;;2.20;0.50;;;17.90;86.10;;;;;;5031570;28;20029;-72
2022/06/16 06:59:49;;;;;;;3.97;0.70;;;17.70;86.30;;;;;;5031314;28;20060;-72
2022/06/16 07:02:17;;;;;;;1.95;0.60;;;17.70;86.80;;;;;;5031090;28;20452;-73
2022/06/16 07:04:45;;;;;;;3.10;0.73;;;17.50;86.90;;;;;;5031107;28;20462;-69
2022/06/16 07:07:17;;;;;;;0.95;0.50;;;17.40;87.10;;;;;;5031509;28;20033;-74
2022/06/16 07:09:44;;;;;;;3.33;0.65;;;17.40;87.20;;;;;;5031405;28;20025;-70
2022/06/16 07:12:15;;;;;;;3.05;1.10;;;17.30;87.60;;;;;;5031303;28;20036;-71
2022/06/16 07:14:48;;;;;;;1.60;0.68;;;17.30;87.80;;;;;;5030456;28;20017;-71
2022/06/16 07:17:20;;;;;;;0.85;0.50;;;17.20;87.90;;;;;;5030622;28;20071;-69
2022/06/16 07:19:47;;;;;;;0.93;0.50;;;17.10;88.30;;;;;;5046696;28;20036;-71
2022/06/16 07:22:15;;;;;;;3.42;0.75;;;17.10;88.60;;;;;;5031107;28;20037;-71
2022/06/16 07:24:43;;;;;;;2.28;1.00;;;17.00;89.00;;;;;;5030256;28;20049;-72
2022/06/16 07:27:11;;;;;;;2.22;0.80;;;16.90;89.20;;;;;;5031572;28;20053;-70
2022/06/16 07:29:38;;;;;;;3.15;1.38;;;16.90;89.30;;;;;;5031804;28;20406;-71
2022/06/16 07:32:06;;;;;;;4.10;2.22;;;16.90;89.50;;;;;;5031503;28;20382;-70
2022/06/16 07:34:34;;;;;;;4.93;3.72;;;16.80;89.80;;;;;;5031315;28;20450;-71
2022/06/16 07:37:02;;;;;;;2.80;1.45;;;16.70;90.00;;;;;;5031357;28;20029;-74
2022/06/16 07:39:36;;;;;;;3.40;2.20;;;16.70;90.00;;;;;;5031618;28;20385;-73
2022/06/16 07:42:04;;;;;;;1.95;0.65;;;16.60;90.10;;;;;;5030984;28;20026;-70
2022/06/16 07:44:31;;;;;;;2.88;1.40;;;16.60;90.20;;;;;;5031270;28;20363;-75
2022/06/16 07:47:03;;;;;;;7.72;6.68;;;16.50;90.20;;;;;;5031506;28;20482;-72
2022/06/16 07:49:32;;;;;;;3.73;2.00;;;16.50;90.20;;;;;;5050463;28;20167;-71
2022/06/16 07:52:02;;;;;;;2.17;1.35;;;16.40;90.00;;;;;;5035849;28;20029;-72
2022/06/16 07:54:29;;;;;;;3.10;1.10;;;16.50;90.00;;;;;;5034146;28;20099;-70
2022/06/16 07:56:57;;;;;;;5.38;3.70;;;16.40;90.10;;;;;;5033316;28;20568;-73
2022/06/16 07:59:25;;;;;;;8.55;6.00;;;16.40;90.10;;;;;;5034487;28;20030;-74
2022/06/16 08:01:54;;;;;;;3.83;2.40;;;16.30;90.20;;;;;;5040514;28;20508;-71
2022/06/16 08:04:21;;;;;;;5.13;3.28;;;16.30;90.30;;;;;;5065096;28;20102;-74
2022/06/16 08:06:49;;;;;;;2.83;1.65;;;16.30;90.30;;;;;;5053108;28;20116;-71
2022/06/16 08:09:17;;;;;;;3.38;2.30;;;16.20;90.40;;;;;;5055036;28;20032;-70
2022/06/16 08:14:36;;;;;;;8.68;6.78;;;16.20;90.50;;;;;;5035521;28;20501;-71
2022/06/16 08:17:08;;;;;;;5.50;3.53;;;16.10;90.50;;;;;;5046744;28;20025;-71
2022/06/16 08:19:35;;;;;;;4.28;1.67;;;16.10;90.50;;;;;;5053346;28;20037;-77
2022/06/16 08:22:03;;;;;;;3.20;1.55;;;16.00;90.50;;;;;;5043339;28;20033;-70
2022/06/16 08:24:31;;;;;;;15.90;8.02;;;16.00;90.70;;;;;;5035113;28;20547;-72
2022/06/16 08:27:00;;;;;;;5.00;2.47;;;16.00;90.50;;;;;;5034529;28;20039;-70
2022/06/16 08:29:28;;;;;;;6.60;2.90;;;15.90;90.50;;;;;;5034039;28;20029;-72
2022/06/16 08:31:57;;;;;;;3.80;2.30;;;15.90;90.50;;;;;;5033816;28;20022;-71
2022/06/16 08:34:25;;;;;;;3.10;1.52;;;15.90;90.60;;;;;;5034235;28;20100;-73
2022/06/16 08:36:52;;;;;;;3.92;2.60;;;15.80;90.70;;;;;;5033582;28;20474;-75
2022/06/16 08:39:19;;;;;;;4.30;2.05;;;15.80;90.90;;;;;;5034000;28;20095;-71
2022/06/16 08:41:51;;;;;;;4.35;2.63;;;15.70;91.00;;;;;;5034535;28;20056;-74
2022/06/16 08:44:55;;;;;;;12.23;6.90;;;15.70;91.10;;;;;;5034198;28;20478;-70
2022/06/16 08:47:27;;;;;;;3.30;2.03;;;15.60;91.20;;;;;;5032443;28;20655;-74
2022/06/16 08:50:39;;;;;;;7.50;4.40;;;15.60;91.30;;;;;;5033374;28;20029;-72
2022/06/16 08:53:48;;;;;;;3.25;1.60;;;15.50;91.50;;;;;;5037202;28;20140;-70
2022/06/16 08:56:47;;;;;;;2.70;1.23;;;15.40;91.60;;;;;;5011522;28;20418;-72
2022/06/16 08:59:44;;;;;;;4.10;2.47;;;15.30;91.60;;;;;;5014265;28;20491;-71
2022/06/16 09:02:35;;;;;;;2.95;1.65;;;15.30;91.90;;;;;;5020900;28;20044;-71
2022/06/16 09:05:30;;;;;;;6.85;4.30;;;15.20;91.90;;;;;;5023687;28;20036;-72
2022/06/16 09:08:10;;;;;;;8.18;4.85;;;15.20;92.00;;;;;;5052734;28;20049;-79
2022/06/16 09:11:02;;;;;;;6.60;3.72;;;15.10;92.00;;;;;;5059012;28;20032;-77
2022/06/16 09:13:32;;;;;;;4.60;3.20;;;15.10;92.10;;;;;;5055170;28;20025;-72
2022/06/16 09:16:15;;;;;;;4.70;3.53;;;15.00;92.10;;;;;;5040909;28;20057;-71
2022/06/16 09:18:48;;;;;;;3.65;2.60;;;15.00;92.20;;;;;;5012698;28;20391;-73
2022/06/16 09:21:35;;;;;;;3.90;2.50;;;14.90;92.40;;;;;;5026949;28;20056;-71
2022/06/16 09:24:02;;;;;;;4.65;1.70;;;14.90;92.60;;;;;;5065958;28;20029;-78
2022/06/16 09:27:06;;;;;;;4.55;2.72;;;14.80;92.70;;;;;;5037447;28;20434;-78
2022/06/16 09:29:42;;;;;;;4.40;2.13;;;14.80;92.70;;;;;;5048676;28;20040;-74
2022/06/16 09:32:39;;;;;;;3.63;1.90;;;14.70;92.70;;;;;;5049454;28;20033;-77
2022/06/16 09:35:27;;;;;;;3.00;2.17;;;14.70;92.90;;;;;;5042362;28;20517;-77
2022/06/16 09:37:59;;;;;;;3.05;1.70;;;14.70;93.00;;;;;;5019599;28;20082;-78
2022/06/16 09:40:33;;;;;;;3.28;1.65;;;14.60;93.10;;;;;;5023182;28;20014;-72
2022/06/16 09:43:25;;;;;;;5.82;2.80;;;14.60;93.20;;;;;;5054742;28;20100;-75
2022/06/16 09:46:01;;;;;;;6.38;3.33;;;14.60;93.30;;;;;;5057641;28;20056;-78
2022/06/16 09:48:42;;;;;;;3.55;2.35;;;14.50;93.30;;;;;;5060071;28;20033;-76
2022/06/16 09:51:35;;;;;;;4.05;3.05;;;14.50;93.50;;;;;;5057555;28;20111;-79
2022/06/16 09:54:12;;;;;;;4.40;2.13;;;14.40;93.50;;;;;;5041697;28;20044;-77
2022/06/16 09:57:00;;;;;;;5.40;2.95;;;14.40;93.60;;;;;;5043894;28;20078;-75
2022/06/16 09:59:54;;;;;;;7.78;4.78;;;14.40;93.70;;;;;;5057666;28;20096;-77
2022/06/16 10:02:28;;;;;;;6.03;3.53;;;14.40;93.80;;;;;;5042366;28;20036;-79
2022/06/16 10:04:56;;;;;;;4.45;2.95;;;14.30;93.80;;;;;;5044347;28;20033;-71
2022/06/16 10:07:52;;;;;;;3.55;2.70;;;14.30;93.80;;;;;;5045978;28;20029;-76
2022/06/16 10:10:34;;;;;;;12.35;6.60;;;14.30;94.00;;;;;;5016018;28;20064;-72
2022/06/16 10:13:41;;;;;;;5.93;3.35;;;14.20;93.90;;;;;;5038285;28;20520;-77
2022/06/16 10:16:16;;;;;;;7.63;4.35;;;14.20;94.00;;;;;;5026189;28;20041;-76
2022/06/16 10:18:44;;;;;;;7.35;5.13;;;14.20;94.20;;;;;;5052942;28;20025;-74
2022/06/16 10:21:13;;;;;;;3.80;2.65;;;14.20;94.10;;;;;;5023881;28;20059;-75
2022/06/16 10:23:49;;;;;;;7.13;4.30;;;14.10;94.10;;;;;;5031596;28;20037;-75
2022/06/16 10:26:17;;;;;;;5.93;3.50;;;14.20;94.20;;;;;;5042322;28;20025;-76
2022/06/16 10:29:09;;;;;;;4.68;2.38;;;14.10;94.30;;;;;;5052980;28;20104;-79
2022/06/16 10:31:45;;;;;;;7.35;2.85;;;14.10;94.50;;;;;;5057262;28;20430;-78
2022/06/16 10:34:36;;;;;;;8.50;5.70;;;14.00;94.70;;;;;;5039049;28;20036;-78
2022/06/16 10:37:32;;;;;;;5.97;4.32;;;13.90;94.80;;;;;;5063894;28;20021;-79
2022/06/16 10:40:12;;;;;;;7.00;3.53;;;13.80;94.90;;;;;;5026605;28;20128;-78
2022/06/16 10:42:59;;;;;;;5.70;2.72;;;13.90;95.00;;;;;;5034549;28;20033;-81
2022/06/16 10:45:30;;;;;;;5.82;3.15;;;13.80;95.10;;;;;;5039686;28;20355;-79
2022/06/16 10:48:08;;;;;;;7.57;4.70;;;13.80;95.30;;;;;;5048042;28;20025;-79
2022/06/16 10:50:46;;;;;;;4.18;3.25;;;13.70;95.50;;;;;;5033353;28;20052;-77
2022/06/16 10:53:25;;;;;;;5.63;3.03;;;13.60;95.60;;;;;;5046833;28;20032;-77
2022/06/16 10:56:01;;;;;;;4.38;2.55;;;13.50;95.70;;;;;;5031268;28;20033;-81
2022/06/16 10:58:33;;;;;;;6.13;2.78;;;13.50;96.10;;;;;;5028225;28;20108;-77
2022/06/16 11:01:15;;;;;;;5.20;2.70;;;13.50;96.30;;;;;;5050730;28;20029;-77
2022/06/16 11:03:49;;;;;;;4.82;3.20;;;13.40;96.30;;;;;;5044995;28;20056;-77
2022/06/16 11:06:20;;;;;;;8.50;5.65;;;13.30;96.60;;;;;;5030175;28;20052;-78
2022/06/16 11:08:58;;;;;;;6.90;4.30;;;13.30;96.70;;;;;;5061759;28;20040;-78
2022/06/16 11:11:54;;;;;;;6.80;3.22;;;13.30;96.70;;;;;;5033314;28;20030;-80
2022/06/16 11:14:50;;;;;;;4.95;3.00;;;13.20;96.60;;;;;;5032169;28;20394;-78
2022/06/16 11:17:47;;;;;;;6.20;3.13;;;13.20;96.70;;;;;;5028245;28;20033;-78
2022/06/16 11:20:17;;;;;;;6.10;2.80;;;13.20;96.70;;;;;;5061712;28;20057;-77
2022/06/16 11:22:48;;;;;;;6.03;3.08;;;13.20;96.80;;;;;;5029635;28;20136;-77
2022/06/16 11:25:32;;;;;;;6.60;3.55;;;13.10;96.80;;;;;;5046687;28;20022;-78
2022/06/16 11:28:01;;;;;;;5.78;3.50;;;13.10;96.80;;;;;;5028409;28;20053;-77
2022/06/16 11:30:43;;;;;;;5.53;2.75;;;13.10;96.90;;;;;;5028202;28;20018;-78
2022/06/16 11:36:42;;;;;;;4.88;3.00;;;13.10;96.90;;;;;;5029987;28;20091;-78
2022/06/16 11:39:30;;;;;;;4.30;3.30;;;13.00;97.00;;;;;;5029019;28;20427;-78
2022/06/16 11:41:59;;;;;;;6.65;3.55;;;13.10;97.20;;;;;;5029439;28;20067;-78
2022/06/16 11:44:54;;;;;;;5.85;3.40;;;13.00;97.50;;;;;;5030145;28;20576;-77
2022/06/16 11:47:58;;;;;;;7.53;5.18;;;12.90;97.80;;;;;;5029119;28;20476;-77
2022/06/16 11:50:43;;;;;;;5.28;4.20;;;12.90;97.80;;;;;;5033912;28;20029;-79
2022/06/16 11:53:25;;;;;;;5.82;3.88;;;12.90;97.80;;;;;;5028896;28;20025;-78
2022/06/16 11:56:01;;;;;;;5.80;4.40;;;12.80;98.00;;;;;;5027604;28;20029;-77
2022/06/16 11:58:50;;;;;;;7.63;4.18;;;12.80;98.00;;;;;;5045429;28;20032;-80
2022/06/16 12:01:42;;;;;;;6.38;3.72;;;12.70;98.00;;;;;;5028720;28;20041;-76
2022/06/16 12:04:41;;;;;;;5.18;3.75;;;12.70;98.30;;;;;;5028313;28;20168;-77
2022/06/16 12:07:12;;;;;;;7.75;4.32;;;12.70;98.40;;;;;;5029392;28;20018;-79
2022/06/16 12:10:02;;;;;;;6.57;4.45;;;12.60;98.50;;;;;;5026388;28;20025;-79
2022/06/16 12:12:55;;;;;;;5.70;3.47;;;12.60;98.50;;;;;;5032314;28;20021;-78
2022/06/16 12:15:44;;;;;;;5.97;4.00;;;12.60;98.50;;;;;;5025938;28;20127;-78
2022/06/16 12:18:43;;;;;;;7.47;5.07;;;12.60;98.60;;;;;;5061745;28;20042;-78
2022/06/16 12:21:24;;;;;;;6.97;4.88;;;12.60;98.80;;;;;;5014001;28;20548;-77
2022/06/16 12:24:16;;;;;;;12.95;7.78;;;12.60;98.60;;;;;;5031876;28;20052;-78
2022/06/16 12:27:02;;;;;;;8.98;6.13;;;12.60;98.90;;;;;;5034005;28;20025;-79
2022/06/16 12:29:50;;;;;;;8.88;4.05;;;12.50;99.00;;;;;;5046465;28;20537;-79
2022/06/16 12:32:33;;;;;;;7.20;4.63;;;12.50;99.10;;;;;;5028614;28;20025;-79
2022/06/16 12:35:12;;;;;;;7.30;2.97;;;12.50;99.20;;;;;;5034400;28;20026;-77
2022/06/16 12:37:49;;;;;;;7.85;3.28;;;12.40;99.20;;;;;;5035064;28;20509;-79
2022/06/16 12:40:26;;;;;;;6.05;3.60;;;12.40;99.30;;;;;;5050803;28;20090;-78
2022/06/16 12:43:11;;;;;;;4.95;2.65;;;12.30;99.30;;;;;;5035762;28;20042;-78
2022/06/16 12:45:53;;;;;;;5.22;2.65;;;12.30;99.30;;;;;;5055209;28;20075;-80
2022/06/16 12:48:37;;;;;;;6.60;3.88;;;12.30;99.10;;;;;;5055201;28;20067;-78
2022/06/16 12:51:08;;;;;;;4.80;2.65;;;12.30;99.00;;;;;;5053868;28;20032;-78
2022/06/16 12:53:41;;;;;;;5.80;3.28;;;12.20;98.90;;;;;;5070621;28;20522;-77
2022/06/16 12:56:39;;;;;;;11.23;6.60;;;12.30;98.90;;;;;;5052228;28;20053;-77
2022/06/16 12:59:25;;;;;;;6.70;3.50;;;12.30;98.80;;;;;;5045333;28;20408;-78
2022/06/16 13:01:57;;;;;;;5.70;3.38;;;12.40;98.80;;;;;;5053581;28;20083;-76
2022/06/16 13:04:30;;;;;;;6.45;2.78;;;12.30;98.80;;;;;;5068120;28;20025;-78
2022/06/16 13:07:01;;;;;;;3.45;2.30;;;12.30;98.60;;;;;;5054833;28;20039;-79
2022/06/16 13:09:29;;;;;;;4.35;2.38;;;12.30;98.50;;;;;;5071182;28;20017;-79
2022/06/16 13:12:09;;;;;;;4.40;2.40;;;12.30;98.60;;;;;;5071230;28;20036;-78
2022/06/16 13:14:48;;;;;;;3.78;2.40;;;12.30;98.50;;;;;;5054417;28;20036;-77
2022/06/16 13:17:15;;;;;;;4.75;2.78;;;12.30;98.60;;;;;;5053466;28;20104;-78
2022/06/16 13:19:57;;;;;;;4.10;2.35;;;12.30;98.80;;;;;;5053950;28;20017;-77
2022/06/16 13:22:31;;;;;;;4.47;2.80;;;12.20;98.90;;;;;;5071267;28;20571;-77
2022/06/16 13:25:01;;;;;;;5.18;2.67;;;12.20;99.00;;;;;;5055472;28;20021;-78
2022/06/16 13:27:37;;;;;;;4.03;2.63;;;12.20;99.20;;;;;;5052937;28;20044;-78
2022/06/16 13:30:13;;;;;;;3.50;2.20;;;12.10;99.30;;;;;;5055572;28;20036;-77
2022/06/16 13:32:50;;;;;;;5.35;2.80;;;12.10;99.40;;;;;;5054950;28;20026;-76
2022/06/16 13:35:24;;;;;;;6.78;2.85;;;12.00;99.40;;;;;;5053971;28;20100;-76
2022/06/16 13:38:11;;;;;;;5.45;2.78;;;12.00;99.50;;;;;;5052107;28;20029;-77
2022/06/16 13:40:44;;;;;;;4.75;2.95;;;11.90;99.50;;;;;;5054721;28;20439;-79
2022/06/16 13:43:24;;;;;;;;;;;11.90;99.50;;;;;;5054588;28;20558;-77
2022/06/16 13:46:05;;;;;;;4.50;2.63;;;11.90;99.40;;;;;;5053661;28;19911;-78
2022/06/16 13:48:49;;;;;;;4.43;2.80;;;11.90;99.40;;;;;;5054787;28;20056;-79
2022/06/16 13:51:40;;;;;;;5.95;2.72;;;11.90;99.40;;;;;;5014457;28;20026;-78
2022/06/16 13:54:11;;;;;;;6.63;3.05;;;11.90;99.50;;;;;;5013033;28;20061;-77
2022/06/16 13:56:42;;;;;;;5.90;2.55;;;11.90;99.50;;;;;;5013271;28;20453;-77
2022/06/16 13:59:24;;;;;;;5.15;2.95;;;12.00;99.60;;;;;;5013626;28;20025;-78
2022/06/16 14:02:14;;;;;;;4.97;3.15;;;11.80;99.40;;;;;;5040639;28;20021;-77